Time;durP1;ratioP1;P1;durP2;ratioP2;P2;SDS_P1;SDS_P2;PMS_P1;PMS_P2;Temp;Humidity;BMP_temperature;BMP_pressure;BME280_temperature;BME280_humidity;BME280_pressure;Samples;Min_cycle;Max_cycle;Signal;HPM_P1;HPM_P2
2022/06/02 00:01:17;;;;;;;1.70;1.23;;;18.10;56.90;;;;;;5055059;28;20453;-84
2022/06/02 00:03:53;;;;;;;4.60;1.67;;;18.00;57.00;;;;;;5054431;28;20471;-85
2022/06/02 00:06:36;;;;;;;2.07;1.50;;;17.90;57.00;;;;;;5054659;28;20833;-85
2022/06/02 00:09:11;;;;;;;1.33;1.10;;;17.90;57.10;;;;;;5060400;28;20445;-84
2022/06/02 00:11:58;;;;;;;3.77;1.10;;;17.90;57.20;;;;;;5054455;28;20451;-84
2022/06/02 00:14:33;;;;;;;2.43;1.40;;;17.90;56.90;;;;;;5080899;22;20472;-85
2022/06/02 00:17:06;;;;;;;1.93;1.50;;;17.90;57.00;;;;;;5041270;28;20463;-86
2022/06/02 00:19:42;;;;;;;2.23;1.40;;;17.90;57.00;;;;;;5038140;28;20950;-85
2022/06/02 00:22:15;;;;;;;3.90;1.40;;;17.90;57.00;;;;;;5045008;28;20450;-85
2022/06/02 00:24:49;;;;;;;1.70;1.50;;;18.00;57.10;;;;;;5040104;28;20492;-85
2022/06/02 00:27:26;;;;;;;4.80;1.50;;;17.90;57.10;;;;;;5035698;28;20853;-85
2022/06/02 00:30:04;;;;;;;2.47;1.30;;;17.90;57.20;;;;;;5035577;28;20456;-84
2022/06/02 00:32:39;;;;;;;2.50;1.37;;;17.80;57.20;;;;;;5037995;28;20456;-84
2022/06/02 00:35:20;;;;;;;2.20;1.40;;;17.90;57.00;;;;;;5043345;28;20464;-85
2022/06/02 00:37:51;;;;;;;2.13;1.47;;;17.80;57.20;;;;;;5051333;28;20459;-85
2022/06/02 00:40:19;;;;;;;5.03;1.43;;;17.80;57.20;;;;;;5046740;28;20437;-85
2022/06/02 00:43:05;;;;;;;1.87;1.63;;;17.80;57.30;;;;;;5049368;28;20457;-85
2022/06/02 00:45:32;;;;;;;4.33;1.67;;;17.80;57.30;;;;;;5043322;28;20497;-85
2022/06/02 00:48:15;;;;;;;2.70;1.73;;;17.70;57.60;;;;;;5038482;28;20454;-85
2022/06/02 00:50:58;;;;;;;3.17;1.57;;;17.70;57.70;;;;;;5037165;28;20817;-87
2022/06/02 00:53:37;;;;;;;2.70;1.67;;;17.60;57.70;;;;;;5051641;28;20459;-89
2022/06/02 00:59:08;;;;;;;1.87;1.40;;;17.70;57.70;;;;;;5043603;28;20424;-85
2022/06/02 01:01:37;;;;;;;2.33;1.37;;;17.60;57.80;;;;;;5035911;28;20464;-86
2022/06/02 01:04:09;;;;;;;1.80;1.57;;;17.50;57.90;;;;;;5038791;28;20484;-87
2022/06/02 01:07:01;;;;;;;2.27;2.07;;;17.50;58.10;;;;;;5037998;28;20989;-84
2022/06/02 01:09:54;;;;;;;1.87;1.50;;;17.50;58.30;;;;;;5036909;28;20469;-85
2022/06/02 01:12:35;;;;;;;4.00;1.70;;;17.50;58.30;;;;;;5037746;28;20489;-85
2022/06/02 01:15:12;;;;;;;4.27;1.50;;;17.50;58.30;;;;;;5042443;28;20492;-86
2022/06/02 01:17:50;;;;;;;3.10;1.70;;;17.50;58.50;;;;;;5050511;28;20445;-85
2022/06/02 01:20:43;;;;;;;5.50;1.90;;;17.40;58.70;;;;;;5048395;28;20495;-85
2022/06/02 01:23:39;;;;;;;2.53;1.80;;;17.40;58.80;;;;;;5046210;28;20500;-85
2022/06/02 01:26:32;;;;;;;3.17;2.00;;;17.30;58.90;;;;;;5038439;28;20506;-85
2022/06/02 01:29:02;;;;;;;2.97;1.60;;;17.30;59.00;;;;;;5022388;28;20445;-85
2022/06/02 01:31:48;;;;;;;2.83;1.50;;;17.20;59.00;;;;;;5055793;28;20466;-86
2022/06/02 01:34:32;;;;;;;1.67;1.43;;;17.30;59.20;;;;;;5044162;28;20469;-85
2022/06/02 01:37:05;;;;;;;2.10;1.90;;;17.20;59.20;;;;;;5037429;28;20449;-85
2022/06/02 01:39:46;;;;;;;3.30;2.00;;;17.20;59.20;;;;;;5034508;28;20453;-85
2022/06/02 01:42:23;;;;;;;2.37;1.53;;;17.20;59.40;;;;;;5034651;28;20455;-85
2022/06/02 01:45:01;;;;;;;2.27;2.00;;;17.20;59.50;;;;;;5035280;28;21059;-85
2022/06/02 01:47:34;;;;;;;2.10;1.40;;;17.20;59.60;;;;;;5034472;28;20449;-87
2022/06/02 01:50:31;;;;;;;2.10;1.67;;;17.10;59.60;;;;;;5035050;28;20468;-86
2022/06/02 01:53:07;;;;;;;2.77;1.43;;;17.00;59.80;;;;;;5034792;28;20442;-85
2022/06/02 01:55:58;;;;;;;1.60;1.40;;;16.90;59.90;;;;;;5035593;28;20888;-85
2022/06/02 01:58:39;;;;;;;2.90;1.30;;;16.90;60.20;;;;;;5034016;28;20445;-86
2022/06/02 02:01:14;;;;;;;4.47;1.40;;;16.80;60.70;;;;;;5035044;28;20455;-85
2022/06/02 02:03:52;;;;;;;6.70;1.67;;;16.70;60.90;;;;;;5034069;28;20854;-85
2022/06/02 02:06:27;;;;;;;6.37;1.90;;;16.70;61.30;;;;;;5034253;28;20460;-85
2022/06/02 02:09:06;;;;;;;2.10;1.43;;;16.70;61.40;;;;;;5034329;28;20441;-85
2022/06/02 02:11:48;;;;;;;3.47;1.70;;;16.70;61.40;;;;;;5036419;28;20873;-85
2022/06/02 02:14:31;;;;;;;3.80;1.50;;;16.70;61.50;;;;;;5035892;28;20440;-85
2022/06/02 02:17:07;;;;;;;1.80;1.50;;;16.60;61.90;;;;;;5035932;28;20467;-86
2022/06/02 02:19:47;;;;;;;2.17;1.47;;;16.60;62.10;;;;;;5034650;28;20449;-85
2022/06/02 02:22:24;;;;;;;5.93;1.90;;;16.60;62.20;;;;;;5034880;28;20441;-85
2022/06/02 02:25:05;;;;;;;1.90;1.60;;;16.60;62.30;;;;;;5034255;28;20496;-86
2022/06/02 02:30:28;;;;;;;2.03;1.53;;;16.60;62.50;;;;;;5035659;28;20436;-85
2022/06/02 02:33:00;;;;;;;2.47;1.40;;;16.60;62.80;;;;;;5052877;28;20441;-85
2022/06/02 02:35:39;;;;;;;3.37;1.60;;;16.50;62.80;;;;;;5052904;28;20449;-85
2022/06/02 02:38:11;;;;;;;3.70;1.60;;;16.60;62.90;;;;;;5047356;28;20464;-84
2022/06/02 02:40:44;;;;;;;1.80;1.37;;;16.50;63.00;;;;;;5053120;28;20836;-84
2022/06/02 02:43:16;;;;;;;2.30;1.70;;;16.50;64.10;;;;;;5059257;28;20418;-87
2022/06/02 02:45:51;;;;;;;3.30;2.10;;;16.50;63.20;;;;;;5050310;28;20488;-85
2022/06/02 02:48:29;;;;;;;2.37;1.70;;;16.50;63.40;;;;;;5045348;28;20453;-85
2022/06/02 02:51:05;;;;;;;3.93;1.80;;;16.50;63.50;;;;;;5049918;28;20444;-85
2022/06/02 02:53:36;;;;;;;2.10;1.70;;;16.40;63.50;;;;;;5055258;28;20456;-86
2022/06/02 02:56:12;;;;;;;3.93;1.70;;;16.40;63.80;;;;;;5057789;28;20465;-85
2022/06/02 02:58:44;;;;;;;2.73;1.60;;;16.30;64.00;;;;;;5055234;28;20467;-85
2022/06/02 03:01:15;;;;;;;2.63;1.87;;;16.30;64.10;;;;;;5054899;28;20468;-85
2022/06/02 03:03:53;;;;;;;2.10;1.90;;;16.30;64.10;;;;;;5056602;28;20449;-86
2022/06/02 03:06:24;;;;;;;2.53;1.70;;;16.30;64.20;;;;;;5040501;28;21155;-85
2022/06/02 03:08:59;;;;;;;4.33;2.07;;;16.30;64.20;;;;;;5038731;28;20934;-85
2022/06/02 03:11:54;;;;;;;2.43;1.90;;;16.40;64.40;;;;;;5038798;28;20507;-85
2022/06/02 03:14:34;;;;;;;3.20;1.97;;;16.40;64.40;;;;;;5039023;28;20445;-85
2022/06/02 03:17:11;;;;;;;5.27;1.80;;;16.30;64.50;;;;;;5038748;28;20449;-86
2022/06/02 03:19:46;;;;;;;2.37;2.17;;;16.30;64.70;;;;;;5037947;28;20454;-85
2022/06/02 03:22:30;;;;;;;4.30;2.47;;;16.30;64.60;;;;;;5041063;28;20912;-84
2022/06/02 03:25:07;;;;;;;4.17;2.13;;;16.20;64.90;;;;;;5040278;28;20576;-85
2022/06/02 03:27:44;;;;;;;2.43;2.10;;;16.20;65.10;;;;;;5041549;28;20444;-84
2022/06/02 03:30:19;;;;;;;2.57;2.10;;;16.10;65.20;;;;;;5040517;28;20797;-87
2022/06/02 03:33:00;;;;;;;2.10;1.90;;;16.10;65.20;;;;;;5043091;28;20429;-85
2022/06/02 03:35:32;;;;;;;1.90;1.60;;;16.10;65.40;;;;;;5058674;28;20469;-86
2022/06/02 03:38:17;;;;;;;2.70;1.97;;;16.10;65.20;;;;;;5053618;28;20500;-86
2022/06/02 03:41:00;;;;;;;5.60;1.90;;;16.20;65.10;;;;;;5058278;28;20417;-85
2022/06/02 03:43:34;;;;;;;5.93;1.90;;;16.20;65.20;;;;;;5053571;28;20452;-86
2022/06/02 03:46:15;;;;;;;1.90;1.70;;;16.10;65.20;;;;;;5044963;28;20496;-85
2022/06/02 03:49:08;;;;;;;2.40;2.00;;;16.20;65.10;;;;;;5043102;28;20937;-85
2022/06/02 03:51:43;;;;;;;1.90;1.70;;;16.10;65.10;;;;;;5040440;28;20453;-86
2022/06/02 03:54:38;;;;;;;2.70;1.87;;;16.00;65.40;;;;;;5041187;28;20445;-86
2022/06/02 03:57:28;;;;;;;2.70;1.90;;;16.00;65.50;;;;;;5039799;28;20813;-87
2022/06/02 04:00:09;;;;;;;4.30;2.30;;;15.90;65.60;;;;;;5037317;28;20567;-85
2022/06/02 04:02:42;;;;;;;4.07;2.13;;;15.90;65.90;;;;;;5036581;28;20449;-86
2022/06/02 04:05:25;;;;;;;4.87;3.43;;;15.90;66.10;;;;;;5037968;28;20488;-85
2022/06/02 04:08:05;;;;;;;3.43;2.37;;;15.90;66.20;;;;;;5039260;28;20445;-86
2022/06/02 04:10:38;;;;;;;2.77;2.20;;;15.90;66.50;;;;;;5039261;28;20953;-85
2022/06/02 04:13:38;;;;;;;4.57;2.00;;;15.90;66.70;;;;;;5040368;28;20448;-85
2022/06/02 04:16:26;;;;;;;3.73;1.80;;;15.90;66.90;;;;;;5042532;28;20544;-85
2022/06/02 04:21:57;;;;;;;4.67;2.83;;;15.90;67.10;;;;;;5042457;28;20433;-85
2022/06/02 04:24:32;;;;;;;5.30;2.30;;;16.00;66.80;;;;;;5038469;28;20444;-85
2022/06/02 04:27:09;;;;;;;4.20;2.20;;;16.00;66.80;;;;;;5038947;28;20441;-85
2022/06/02 04:29:49;;;;;;;5.93;2.30;;;16.10;66.20;;;;;;5048470;28;20460;-85
2022/06/02 04:32:23;;;;;;;2.57;1.87;;;16.20;65.90;;;;;;5054672;28;20409;-85
2022/06/02 04:34:56;;;;;;;2.93;1.93;;;16.20;65.60;;;;;;5046338;28;20466;-85
2022/06/02 04:37:35;;;;;;;3.30;2.00;;;16.20;65.40;;;;;;5040763;28;20461;-85
2022/06/02 04:40:11;;;;;;;2.73;2.23;;;16.30;65.30;;;;;;5057632;28;20449;-85
2022/06/02 04:42:46;;;;;;;2.40;2.20;;;16.30;65.00;;;;;;5057956;28;20425;-88
2022/06/02 04:45:20;;;;;;;5.30;1.90;;;16.40;65.30;;;;;;5055683;28;20499;-86
2022/06/02 04:47:56;;;;;;;2.50;1.93;;;16.40;65.00;;;;;;5049738;28;20448;-86
2022/06/02 04:50:30;;;;;;;2.87;2.10;;;16.50;64.60;;;;;;5040137;28;20452;-86
2022/06/02 04:53:07;;;;;;;3.67;2.40;;;16.50;64.70;;;;;;5041343;28;20444;-86
2022/06/02 04:55:41;;;;;;;2.43;1.70;;;16.40;64.80;;;;;;5043269;28;20481;-86
2022/06/02 04:58:16;;;;;;;3.67;2.57;;;16.40;65.20;;;;;;5042262;28;20452;-85
2022/06/02 05:00:49;;;;;;;4.03;2.53;;;16.40;65.40;;;;;;5034961;28;20471;-86
2022/06/02 05:03:24;;;;;;;2.87;2.00;;;16.50;65.20;;;;;;5032598;28;20454;-86
2022/06/02 05:06:10;;;;;;;4.40;2.13;;;16.60;64.80;;;;;;5035068;28;20493;-88
2022/06/02 05:08:49;;;;;;;2.53;2.33;;;16.70;64.60;;;;;;5033297;28;20444;-84
2022/06/02 05:11:26;;;;;;;3.37;2.00;;;16.80;64.60;;;;;;5042358;28;20448;-83
2022/06/02 05:14:03;;;;;;;2.00;1.80;;;17.20;64.20;;;;;;5046598;28;20472;-87
2022/06/02 05:16:41;;;;;;;8.10;2.13;;;17.90;62.50;;;;;;5037577;28;20461;-86
2022/06/02 05:19:41;;;;;;;3.60;1.83;;;18.80;59.90;;;;;;5048538;28;20465;-83
2022/06/02 05:22:35;;;;;;;8.00;2.70;;;19.60;58.00;;;;;;5043617;28;20433;-84
2022/06/02 05:25:33;;;;;;;3.80;2.30;;;20.20;56.60;;;;;;5037146;28;20560;-83
2022/06/02 05:28:26;;;;;;;4.33;2.37;;;20.80;55.40;;;;;;5023101;28;20528;-83
2022/06/02 05:31:11;;;;;;;3.13;2.10;;;21.20;53.90;;;;;;5032394;28;20552;-81
2022/06/02 05:33:52;;;;;;;2.23;1.83;;;21.60;53.70;;;;;;5038441;28;20438;-83
2022/06/02 05:36:38;;;;;;;3.37;1.83;;;22.30;52.00;;;;;;5039764;28;20455;-83
2022/06/02 05:39:26;;;;;;;3.30;2.50;;;22.50;51.10;;;;;;5035113;28;20440;-84
2022/06/02 05:42:05;;;;;;;3.63;2.90;;;22.70;50.40;;;;;;5034250;28;20477;-84
2022/06/02 05:44:45;;;;;;;2.87;2.27;;;22.60;50.20;;;;;;5033735;28;20447;-86
2022/06/02 05:47:32;;;;;;;2.33;1.97;;;22.70;50.60;;;;;;5035464;28;20424;-83
2022/06/02 05:50:07;;;;;;;2.57;2.37;;;22.70;50.30;;;;;;5051636;28;20429;-82
2022/06/02 05:52:47;;;;;;;3.33;1.93;;;22.40;49.50;;;;;;5046487;28;20438;-84
2022/06/02 05:55:28;;;;;;;3.13;2.20;;;22.20;50.10;;;;;;5037744;28;20462;-87
2022/06/02 05:58:14;;;;;;;3.40;1.90;;;22.00;50.90;;;;;;5031434;28;20466;-84
2022/06/02 06:00:58;;;;;;;2.50;2.30;;;22.70;50.20;;;;;;5034044;28;20447;-83
2022/06/02 06:04:06;;;;;;;2.63;2.13;;;23.00;49.40;;;;;;5034254;28;20444;-83
2022/06/02 06:06:42;;;;;;;4.90;2.10;;;23.30;49.20;;;;;;4976291;28;20503;-84
2022/06/02 06:09:19;;;;;;;5.40;2.83;;;23.70;48.50;;;;;;5014649;28;20457;-84
2022/06/02 06:12:10;;;;;;;2.93;1.67;;;24.10;47.80;;;;;;5015275;28;20446;-84
2022/06/02 06:14:43;;;;;;;2.97;2.40;;;24.90;46.90;;;;;;5022681;28;20486;-83
2022/06/02 06:17:18;;;;;;;2.83;2.63;;;25.50;45.10;;;;;;5018711;28;20439;-85
2022/06/02 06:20:07;;;;;;;4.70;2.33;;;25.60;44.20;;;;;;5029953;28;20431;-84
2022/06/02 06:22:55;;;;;;;3.63;2.67;;;26.10;44.00;;;;;;5052768;22;20496;-88
2022/06/02 06:25:50;;;;;;;4.30;2.07;;;26.60;43.20;;;;;;5014111;28;20494;-88
2022/06/02 06:28:19;;;;;;;2.83;2.20;;;26.60;42.60;;;;;;5025462;28;20450;-89
2022/06/02 06:30:57;;;;;;;5.83;2.10;;;26.30;42.60;;;;;;5035946;28;20449;-89
2022/06/02 06:33:41;;;;;;;2.63;2.43;;;25.70;43.10;;;;;;5030238;28;20485;-90
2022/06/02 06:36:20;;;;;;;3.17;2.20;;;25.30;43.90;;;;;;5020555;28;20434;-90
2022/06/02 06:38:59;;;;;;;6.37;3.03;;;25.30;44.90;;;;;;5036926;28;20548;-90
2022/06/02 06:41:51;;;;;;;5.17;2.40;;;26.30;44.10;;;;;;5038650;28;20461;-91
2022/06/02 06:44:25;;;;;;;6.63;2.80;;;26.90;42.10;;;;;;5056285;28;20448;-90
2022/06/02 06:46:59;;;;;;;4.53;2.33;;;27.20;41.50;;;;;;5040524;28;20488;-90
2022/06/02 06:49:37;;;;;;;3.53;2.10;;;27.50;41.10;;;;;;5036075;28;20476;-90
2022/06/02 06:52:34;;;;;;;4.33;2.50;;;28.10;41.00;;;;;;5036200;28;20475;-91
2022/06/02 06:55:08;;;;;;;3.17;2.80;;;27.20;40.80;;;;;;5035993;28;20453;-90
2022/06/02 06:57:42;;;;;;;3.43;2.17;;;26.70;41.90;;;;;;5035824;28;20448;-90
2022/06/02 07:00:18;;;;;;;6.07;2.77;;;27.20;41.80;;;;;;5035623;28;20949;-90
2022/06/02 07:02:58;;;;;;;3.63;2.00;;;27.40;41.60;;;;;;5036929;28;20504;-90
2022/06/02 07:05:31;;;;;;;2.20;2.00;;;27.60;40.60;;;;;;5035834;28;20476;-85
2022/06/02 07:08:09;;;;;;;5.00;2.50;;;27.50;41.00;;;;;;5035174;28;20438;-86
2022/06/02 07:10:42;;;;;;;3.57;2.33;;;28.10;41.10;;;;;;5035469;28;20949;-86
2022/06/02 07:13:19;;;;;;;4.43;2.27;;;28.80;40.10;;;;;;5035780;28;20472;-86
2022/06/02 07:15:52;;;;;;;3.53;2.20;;;29.00;39.40;;;;;;5056423;28;20417;-87
2022/06/02 07:18:30;;;;;;;2.70;1.97;;;29.60;39.00;;;;;;5044338;28;20477;-87
2022/06/02 07:21:05;;;;;;;2.20;2.00;;;30.20;38.20;;;;;;5035131;28;20456;-86
2022/06/02 07:23:44;;;;;;;2.43;2.23;;;30.00;38.10;;;;;;5036592;28;20456;-86
2022/06/02 07:26:29;;;;;;;2.60;1.93;;;30.30;37.70;;;;;;5035660;28;20492;-86
2022/06/02 07:29:05;;;;;;;2.60;2.07;;;30.50;37.70;;;;;;5033751;28;20445;-86
2022/06/02 07:31:48;;;;;;;2.80;1.73;;;30.60;37.70;;;;;;5035164;28;20476;-86
2022/06/02 07:34:36;;;;;;;2.60;2.20;;;31.30;37.00;;;;;;5035004;28;20453;-86
2022/06/02 07:37:21;;;;;;;2.43;1.77;;;31.50;36.00;;;;;;5045906;28;20440;-86
2022/06/02 07:40:13;;;;;;;3.57;1.93;;;30.40;36.70;;;;;;5054400;28;20468;-87
2022/06/02 07:43:17;;;;;;;2.37;1.97;;;30.70;37.00;;;;;;5043357;28;20453;-86
2022/06/02 07:45:54;;;;;;;2.43;2.00;;;31.00;36.70;;;;;;5040386;28;20596;-86
2022/06/02 07:48:47;;;;;;;3.17;2.20;;;31.30;36.20;;;;;;5038189;28;20445;-86
2022/06/02 07:51:20;;;;;;;4.97;2.20;;;32.00;35.80;;;;;;5039529;28;20472;-86
2022/06/02 07:54:11;;;;;;;1.97;1.70;;;31.90;34.60;;;;;;5042380;28;20441;-86
2022/06/02 07:56:52;;;;;;;3.57;2.20;;;31.80;35.10;;;;;;5050109;28;20441;-86
2022/06/02 07:59:29;;;;;;;2.50;2.30;;;32.10;34.90;;;;;;5042965;28;20437;-85
2022/06/02 08:02:27;;;;;;;4.97;2.43;;;31.00;35.40;;;;;;5045559;28;20456;-85
2022/06/02 08:05:01;;;;;;;3.27;2.00;;;31.00;36.00;;;;;;5056990;28;20449;-86
2022/06/02 08:07:35;;;;;;;2.50;1.80;;;31.30;35.90;;;;;;5045782;28;20571;-86
2022/06/02 08:10:19;;;;;;;5.93;2.10;;;32.20;35.00;;;;;;5037908;28;20445;-86
2022/06/02 08:12:56;;;;;;;3.13;2.10;;;32.60;34.60;;;;;;5035784;28;20471;-86
2022/06/02 08:15:36;;;;;;;3.40;2.00;;;33.00;33.90;;;;;;5035859;28;20461;-86
2022/06/02 08:18:18;;;;;;;2.03;1.83;;;33.30;33.70;;;;;;5033725;28;20539;-86
2022/06/02 08:20:54;;;;;;;3.33;1.77;;;33.40;33.60;;;;;;5034641;28;20875;-86
2022/06/02 08:23:44;;;;;;;5.70;2.10;;;33.70;33.50;;;;;;5035176;28;20464;-86
2022/06/02 08:26:15;;;;;;;3.40;1.73;;;33.40;32.90;;;;;;5038693;28;20489;-85
2022/06/02 08:29:05;;;;;;;4.53;2.23;;;33.70;32.50;;;;;;5034624;28;20480;-85
2022/06/02 08:31:49;;;;;;;2.60;2.07;;;34.00;32.50;;;;;;5038403;28;20560;-85
2022/06/02 08:34:21;;;;;;;2.37;1.87;;;34.20;32.40;;;;;;5038794;28;20441;-85
2022/06/02 08:36:58;;;;;;;3.07;1.70;;;35.60;31.60;;;;;;5045186;28;20464;-86
2022/06/02 08:39:41;;;;;;;4.80;2.00;;;35.20;30.90;;;;;;5042304;28;20452;-86
2022/06/02 08:42:45;;;;;;;3.33;2.00;;;34.90;31.20;;;;;;5041697;28;20464;-86
2022/06/02 08:45:29;;;;;;;3.57;1.90;;;34.30;31.70;;;;;;5036381;28;20455;-86
2022/06/02 08:48:40;;;;;;;4.07;2.50;;;33.90;32.80;;;;;;5036060;28;20477;-85
2022/06/02 08:51:50;;;;;;;3.63;2.07;;;33.80;32.20;;;;;;5038023;28;20522;-85
2022/06/02 08:54:56;;;;;;;2.80;1.93;;;33.70;32.40;;;;;;5017902;28;20449;-86
2022/06/02 08:57:53;;;;;;;2.27;1.70;;;33.10;32.20;;;;;;4996107;28;20449;-86
2022/06/02 09:00:39;;;;;;;2.67;1.80;;;32.80;32.80;;;;;;5035931;28;20445;-85
2022/06/02 09:03:44;;;;;;;2.67;1.80;;;33.80;33.20;;;;;;5035041;28;20859;-86
2022/06/02 09:06:51;;;;;;;3.77;1.90;;;33.90;32.10;;;;;;5036973;28;21008;-85
2022/06/02 09:09:50;;;;;;;2.73;1.70;;;33.10;32.50;;;;;;5052647;28;20455;-86
2022/06/02 09:12:57;;;;;;;2.40;1.60;;;33.50;32.80;;;;;;5038200;28;20461;-85
2022/06/02 09:15:54;;;;;;;5.33;1.90;;;34.40;31.50;;;;;;5033804;28;20453;-85
2022/06/02 09:18:56;;;;;;;3.90;1.90;;;34.80;31.30;;;;;;5032652;28;20441;-85
2022/06/02 09:21:28;;;;;;;1.90;1.70;;;34.80;30.00;;;;;;5001669;28;20460;-86
2022/06/02 09:24:03;;;;;;;2.53;1.60;;;34.60;30.90;;;;;;5027649;28;20442;-86
2022/06/02 09:26:49;;;;;;;3.43;1.87;;;35.20;30.50;;;;;;5021822;28;20905;-86
2022/06/02 09:29:24;;;;;;;2.33;1.40;;;35.30;30.10;;;;;;5031189;28;20452;-86
2022/06/02 09:32:20;;;;;;;3.93;1.83;;;35.60;30.00;;;;;;5031626;28;20468;-85
2022/06/02 09:35:02;;;;;;;2.77;1.80;;;35.40;30.00;;;;;;5023208;28;20444;-86
2022/06/02 09:38:06;;;;;;;4.40;1.80;;;34.80;30.40;;;;;;5033164;28;20418;-87
2022/06/02 09:40:46;;;;;;;1.93;1.70;;;35.10;30.60;;;;;;5018996;28;20859;-86
2022/06/02 09:43:35;;;;;;;2.67;2.00;;;32.90;30.20;;;;;;5025470;28;20445;-86
2022/06/02 09:46:31;;;;;;;3.60;1.73;;;30.50;33.50;;;;;;5045154;28;21084;-87
2022/06/02 09:49:16;;;;;;;2.37;1.70;;;30.20;35.20;;;;;;5002888;28;20440;-86
2022/06/02 09:51:56;;;;;;;3.10;2.17;;;31.10;35.30;;;;;;5035327;28;20446;-86
2022/06/02 09:54:53;;;;;;;3.30;2.50;;;32.00;34.20;;;;;;5054221;28;20467;-86
2022/06/02 09:57:57;;;;;;;2.00;1.60;;;32.90;32.70;;;;;;5032725;28;20445;-86
2022/06/02 10:00:49;;;;;;;1.40;1.27;;;32.60;32.90;;;;;;5041628;28;20441;-87
2022/06/02 10:03:59;;;;;;;2.73;1.60;;;32.60;33.70;;;;;;5033235;28;20453;-86
2022/06/02 10:07:04;;;;;;;2.07;1.80;;;34.20;32.10;;;;;;5037801;28;20488;-86
2022/06/02 10:09:42;;;;;;;2.00;1.80;;;35.00;31.10;;;;;;5030283;28;20445;-86
2022/06/02 10:15:21;;;;;;;4.83;3.53;;;33.70;31.80;;;;;;5019991;28;20429;-87
2022/06/02 10:18:02;;;;;;;1.97;1.60;;;33.60;31.60;;;;;;5030266;28;20444;-86
2022/06/02 10:20:56;;;;;;;3.10;1.30;;;33.20;31.90;;;;;;5039145;28;20449;-87
2022/06/02 10:23:45;;;;;;;2.23;1.73;;;32.20;33.60;;;;;;5012347;28;20561;-85
2022/06/02 10:26:25;;;;;;;5.27;1.70;;;32.80;32.50;;;;;;5035367;28;20484;-86
2022/06/02 10:29:21;;;;;;;2.40;1.53;;;33.70;32.50;;;;;;5022973;28;20445;-87
2022/06/02 10:32:25;;;;;;;3.03;2.17;;;35.20;31.40;;;;;;5038802;28;20473;-86
2022/06/02 10:35:25;;;;;;;2.73;1.60;;;35.20;30.90;;;;;;5021277;28;20938;-87
2022/06/02 10:38:18;;;;;;;3.10;1.70;;;36.00;30.70;;;;;;5040100;28;20422;-87
2022/06/02 10:41:22;;;;;;;3.20;2.17;;;36.70;29.80;;;;;;5052673;28;20529;-86
2022/06/02 10:44:14;;;;;;;3.50;1.93;;;37.70;29.40;;;;;;5030749;28;20451;-86
2022/06/02 10:47:27;;;;;;;1.90;1.70;;;38.30;28.50;;;;;;5021355;28;20477;-86
2022/06/02 10:50:00;;;;;;;3.10;2.07;;;39.10;28.10;;;;;;4964398;28;20452;-86
2022/06/02 10:53:16;;;;;;;2.90;1.70;;;38.50;27.90;;;;;;5023562;28;20480;-86
2022/06/02 10:56:21;;;;;;;3.80;2.23;;;38.20;28.40;;;;;;5036242;28;20444;-86
2022/06/02 10:59:17;;;;;;;3.93;2.20;;;38.60;28.20;;;;;;5035289;28;20882;-85
2022/06/02 11:02:19;;;;;;;1.93;1.50;;;37.50;28.30;;;;;;5040350;28;20450;-86
2022/06/02 11:05:19;;;;;;;2.00;1.37;;;36.10;28.80;;;;;;5039375;28;20455;-85
2022/06/02 11:08:37;;;;;;;1.30;1.10;;;35.20;30.10;;;;;;5033056;28;20489;-85
2022/06/02 11:11:44;;;;;;;2.27;1.83;;;35.80;29.70;;;;;;5040380;28;20442;-86
2022/06/02 11:14:40;;;;;;;2.63;1.87;;;36.60;29.60;;;;;;5048679;28;20524;-86
2022/06/02 11:17:35;;;;;;;3.13;1.90;;;36.30;28.90;;;;;;5008997;28;20930;-86
2022/06/02 11:20:37;;;;;;;3.10;2.00;;;35.80;29.90;;;;;;5052556;28;20444;-87
2022/06/02 11:23:37;;;;;;;3.10;1.60;;;36.90;29.20;;;;;;5019160;28;20472;-86
2022/06/02 11:26:30;;;;;;;2.20;1.70;;;37.30;28.80;;;;;;5047327;28;20437;-86
2022/06/02 11:29:43;;;;;;;2.33;1.47;;;37.10;29.00;;;;;;5050917;28;20452;-87
2022/06/02 11:32:27;;;;;;;3.07;1.40;;;36.90;29.10;;;;;;5060872;28;20475;-86
2022/06/02 11:35:33;;;;;;;1.63;1.47;;;38.40;28.40;;;;;;5047727;28;20965;-86
2022/06/02 11:38:32;;;;;;;2.50;1.63;;;39.10;27.90;;;;;;5022859;28;21008;-87
2022/06/02 11:41:16;;;;;;;2.43;1.67;;;38.40;27.70;;;;;;5045404;28;20441;-86
2022/06/02 11:44:00;;;;;;;2.30;1.70;;;37.30;28.60;;;;;;5045555;28;20494;-86
2022/06/02 11:46:42;;;;;;;3.00;1.60;;;34.20;29.30;;;;;;5041234;28;20439;-86
2022/06/02 11:49:40;;;;;;;3.40;2.07;;;34.50;30.70;;;;;;5044354;28;20476;-86
2022/06/02 11:52:34;;;;;;;1.93;1.70;;;36.20;30.20;;;;;;5007348;28;20452;-86
2022/06/02 11:55:17;;;;;;;2.17;1.57;;;35.60;29.90;;;;;;5043377;28;20937;-86
2022/06/02 11:57:50;;;;;;;2.60;2.03;;;36.10;30.00;;;;;;5046619;28;20846;-86
2022/06/02 12:01:02;;;;;;;2.13;1.93;;;36.60;29.60;;;;;;5043489;28;20429;-86
2022/06/02 12:04:02;;;;;;;2.70;1.80;;;35.30;30.80;;;;;;5002285;28;20452;-86
2022/06/02 12:07:04;;;;;;;2.77;2.13;;;34.80;31.30;;;;;;5040006;28;20511;-86
2022/06/02 12:09:53;;;;;;;2.03;1.83;;;36.30;30.10;;;;;;5042395;28;20445;-86
2022/06/02 12:12:38;;;;;;;4.10;1.60;;;36.70;30.00;;;;;;5043359;28;20460;-86
2022/06/02 12:15:40;;;;;;;2.00;1.80;;;36.30;29.70;;;;;;5047336;28;20444;-86
2022/06/02 12:18:19;;;;;;;2.73;1.83;;;35.80;30.00;;;;;;5044268;28;20447;-86
2022/06/02 12:21:26;;;;;;;3.20;1.90;;;34.90;30.70;;;;;;5040144;28;20456;-86
2022/06/02 12:24:23;;;;;;;2.10;1.73;;;35.60;30.80;;;;;;5069717;22;20523;-85
2022/06/02 12:27:12;;;;;;;2.50;2.00;;;34.70;30.50;;;;;;5053493;28;20431;-85
2022/06/02 12:29:58;;;;;;;5.50;1.80;;;33.60;32.60;;;;;;5056572;28;20443;-83
2022/06/02 12:33:16;;;;;;;2.20;1.83;;;33.80;32.90;;;;;;5060326;28;20474;-82
2022/06/02 12:36:10;;;;;;;5.10;1.90;;;32.90;32.50;;;;;;5011984;28;20444;-82
2022/06/02 12:39:03;;;;;;;3.40;1.77;;;32.40;34.20;;;;;;5045453;28;20785;-83
2022/06/02 12:41:59;;;;;;;3.43;1.90;;;31.90;34.40;;;;;;5050352;28;20824;-85
2022/06/02 12:44:47;;;;;;;3.00;1.80;;;31.80;35.10;;;;;;5062359;28;20459;-84
2022/06/02 12:47:56;;;;;;;3.87;1.80;;;31.60;35.50;;;;;;5051838;28;20976;-85
2022/06/02 12:50:42;;;;;;;3.23;1.87;;;31.60;35.80;;;;;;5056403;28;20447;-85
2022/06/02 12:53:39;;;;;;;2.83;1.90;;;31.40;36.00;;;;;;5059883;28;20468;-85
2022/06/02 12:56:59;;;;;;;2.00;1.80;;;31.80;35.20;;;;;;5054585;28;20436;-85
2022/06/02 13:00:09;;;;;;;2.53;2.23;;;32.20;35.20;;;;;;5050515;28;20825;-83
2022/06/02 13:02:57;;;;;;;1.70;1.60;;;32.10;35.10;;;;;;5043782;28;20479;-83
2022/06/02 13:05:41;;;;;;;3.13;1.67;;;32.80;34.60;;;;;;5051519;28;20469;-82
2022/06/02 13:08:45;;;;;;;3.97;1.70;;;33.30;33.70;;;;;;5042584;28;20485;-82
2022/06/02 13:11:38;;;;;;;6.40;2.07;;;33.30;34.10;;;;;;5035741;28;20897;-83
2022/06/02 13:14:22;;;;;;;3.10;2.47;;;34.30;33.10;;;;;;5039862;28;20481;-81
2022/06/02 13:17:21;;;;;;;5.20;2.17;;;34.10;32.10;;;;;;5046526;28;20444;-81
2022/06/02 13:20:13;;;;;;;4.33;2.20;;;34.00;32.90;;;;;;5054550;28;20436;-80
2022/06/02 13:23:23;;;;;;;3.30;3.00;;;33.60;33.20;;;;;;5051675;28;20519;-81
2022/06/02 13:26:26;;;;;;;4.63;1.90;;;32.30;33.90;;;;;;5050341;28;20441;-81
2022/06/02 13:29:32;;;;;;;3.17;2.17;;;32.00;34.90;;;;;;5044496;28;20549;-83
2022/06/02 13:32:29;;;;;;;3.70;1.83;;;32.60;34.70;;;;;;5034485;28;20518;-83
2022/06/02 13:35:35;;;;;;;3.27;2.20;;;32.30;35.40;;;;;;5048271;28;20433;-82
2022/06/02 13:38:26;;;;;;;2.20;2.00;;;31.20;36.00;;;;;;5024047;28;20457;-82
2022/06/02 13:41:08;;;;;;;2.20;1.87;;;30.80;36.60;;;;;;5057272;28;20570;-83
2022/06/02 13:44:05;;;;;;;4.03;1.90;;;30.70;37.30;;;;;;5044967;28;20465;-81
2022/06/02 13:47:07;;;;;;;3.10;1.80;;;30.80;37.30;;;;;;5042879;28;20445;-81
2022/06/02 13:50:04;;;;;;;2.00;1.80;;;30.80;37.40;;;;;;5031372;28;20434;-82
2022/06/02 13:53:08;;;;;;;4.73;2.30;;;30.80;37.00;;;;;;5005373;28;20476;-83
2022/06/02 13:59:00;;;;;;;3.47;1.57;;;31.20;37.00;;;;;;5028668;28;20466;-83
2022/06/02 14:01:47;;;;;;;2.03;1.70;;;31.50;36.50;;;;;;5026375;28;20437;-82
2022/06/02 14:04:38;;;;;;;4.27;1.97;;;31.20;36.50;;;;;;5045646;28;20438;-82
2022/06/02 14:07:25;;;;;;;2.53;1.73;;;31.40;36.60;;;;;;5030000;28;20430;-81
2022/06/02 14:10:08;;;;;;;2.70;1.90;;;31.70;36.10;;;;;;5026801;28;20464;-82
2022/06/02 14:12:59;;;;;;;3.20;2.10;;;32.50;35.70;;;;;;5027334;28;20462;-82
2022/06/02 14:15:52;;;;;;;2.63;1.73;;;33.60;33.90;;;;;;5043495;28;20457;-82
2022/06/02 14:18:39;;;;;;;4.97;1.90;;;34.70;33.10;;;;;;5049159;28;20424;-81
2022/06/02 14:21:11;;;;;;;4.53;2.33;;;34.80;32.10;;;;;;5046043;28;20445;-81
2022/06/02 14:23:53;;;;;;;2.73;1.67;;;34.10;32.70;;;;;;5042083;28;20477;-82
2022/06/02 14:26:28;;;;;;;2.50;1.80;;;33.30;34.00;;;;;;5041105;28;20445;-82
2022/06/02 14:29:13;;;;;;;4.30;2.13;;;32.20;34.40;;;;;;5043079;28;20483;-82
2022/06/02 14:31:51;;;;;;;3.20;1.67;;;31.20;36.60;;;;;;5037367;28;20451;-82
2022/06/02 14:34:27;;;;;;;2.57;1.87;;;30.50;37.70;;;;;;5049211;28;20473;-83
2022/06/02 14:37:02;;;;;;;1.93;1.77;;;29.90;38.70;;;;;;5040637;28;20598;-83